sensor_id;sensor_type;location;lat;lon;timestamp;P1;durP1;ratioP1;P2;durP2;ratioP2
18685;SDS011;9473;52.342;13.110;2023-04-16T00:00:00;25.48;;;14.13;;
18685;SDS011;9473;52.342;13.110;2023-04-16T00:02:28;25.42;;;14.02;;
18685;SDS011;9473;52.342;13.110;2023-04-16T00:04:55;23.48;;;12.57;;
18685;SDS011;9473;52.342;13.110;2023-04-16T00:07:22;22.35;;;13.10;;
18685;SDS011;9473;52.342;13.110;2023-04-16T00:09:49;24.08;;;13.60;;
18685;SDS011;9473;52.342;13.110;2023-04-16T00:12:16;23.27;;;13.40;;
18685;SDS011;9473;52.342;13.110;2023-04-16T00:14:43;26.40;;;14.68;;
18685;SDS011;9473;52.342;13.110;2023-04-16T00:17:11;26.70;;;15.05;;
18685;SDS011;9473;52.342;13.110;2023-04-16T00:19:38;24.88;;;14.38;;
18685;SDS011;9473;52.342;13.110;2023-04-16T00:22:05;24.83;;;13.55;;
18685;SDS011;9473;52.342;13.110;2023-04-16T00:24:32;26.27;;;14.35;;
18685;SDS011;9473;52.342;13.110;2023-04-16T00:26:59;25.40;;;13.68;;
18685;SDS011;9473;52.342;13.110;2023-04-16T00:29:26;25.73;;;14.10;;
18685;SDS011;9473;52.342;13.110;2023-04-16T00:31:54;27.75;;;15.18;;
18685;SDS011;9473;52.342;13.110;2023-04-16T00:34:23;27.60;;;15.55;;
18685;SDS011;9473;52.342;13.110;2023-04-16T00:36:50;29.17;;;15.77;;
18685;SDS011;9473;52.342;13.110;2023-04-16T00:39:16;26.10;;;15.27;;
18685;SDS011;9473;52.342;13.110;2023-04-16T00:41:43;29.25;;;15.82;;
18685;SDS011;9473;52.342;13.110;2023-04-16T00:44:10;26.42;;;15.32;;
18685;SDS011;9473;52.342;13.110;2023-04-16T00:46:37;27.50;;;15.20;;
18685;SDS011;9473;52.342;13.110;2023-04-16T00:49:05;26.80;;;15.18;;
18685;SDS011;9473;52.342;13.110;2023-04-16T00:51:35;29.27;;;16.17;;
18685;SDS011;9473;52.342;13.110;2023-04-16T00:54:02;29.88;;;15.20;;
18685;SDS011;9473;52.342;13.110;2023-04-16T00:56:30;29.88;;;16.15;;
18685;SDS011;9473;52.342;13.110;2023-04-16T00:58:57;26.73;;;14.00;;
18685;SDS011;9473;52.342;13.110;2023-04-16T01:01:24;28.85;;;14.73;;
18685;SDS011;9473;52.342;13.110;2023-04-16T01:03:51;26.25;;;14.93;;
18685;SDS011;9473;52.342;13.110;2023-04-16T01:06:18;29.50;;;16.13;;
18685;SDS011;9473;52.342;13.110;2023-04-16T01:08:47;28.38;;;16.00;;
18685;SDS011;9473;52.342;13.110;2023-04-16T01:11:14;29.88;;;15.30;;
18685;SDS011;9473;52.342;13.110;2023-04-16T01:13:41;24.98;;;14.60;;
18685;SDS011;9473;52.342;13.110;2023-04-16T01:16:09;28.40;;;16.25;;
18685;SDS011;9473;52.342;13.110;2023-04-16T01:18:36;26.88;;;14.57;;
18685;SDS011;9473;52.342;13.110;2023-04-16T01:21:05;26.83;;;14.43;;
18685;SDS011;9473;52.342;13.110;2023-04-16T01:23:31;30.60;;;15.82;;
18685;SDS011;9473;52.342;13.110;2023-04-16T01:25:58;30.90;;;16.58;;
18685;SDS011;9473;52.342;13.110;2023-04-16T01:28:25;29.20;;;16.52;;
18685;SDS011;9473;52.342;13.110;2023-04-16T01:30:52;26.95;;;14.90;;
18685;SDS011;9473;52.342;13.110;2023-04-16T01:33:19;31.42;;;16.42;;
18685;SDS011;9473;52.342;13.110;2023-04-16T01:35:46;31.95;;;17.38;;
18685;SDS011;9473;52.342;13.110;2023-04-16T01:38:15;28.38;;;15.60;;
18685;SDS011;9473;52.342;13.110;2023-04-16T01:40:42;32.10;;;16.27;;
18685;SDS011;9473;52.342;13.110;2023-04-16T01:43:09;30.27;;;15.95;;
18685;SDS011;9473;52.342;13.110;2023-04-16T01:45:36;29.45;;;15.23;;
18685;SDS011;9473;52.342;13.110;2023-04-16T01:48:03;28.15;;;15.57;;
18685;SDS011;9473;52.342;13.110;2023-04-16T01:50:30;28.92;;;15.00;;
18685;SDS011;9473;52.342;13.110;2023-04-16T01:52:57;28.70;;;16.27;;
18685;SDS011;9473;52.342;13.110;2023-04-16T01:55:27;27.52;;;15.35;;
18685;SDS011;9473;52.342;13.110;2023-04-16T01:57:54;27.60;;;15.13;;
18685;SDS011;9473;52.342;13.110;2023-04-16T02:00:21;28.08;;;14.82;;
18685;SDS011;9473;52.342;13.110;2023-04-16T02:02:47;29.55;;;14.38;;
18685;SDS011;9473;52.342;13.110;2023-04-16T02:05:15;29.85;;;15.38;;
18685;SDS011;9473;52.342;13.110;2023-04-16T02:07:41;27.08;;;15.00;;
18685;SDS011;9473;52.342;13.110;2023-04-16T02:10:08;31.33;;;16.63;;
18685;SDS011;9473;52.342;13.110;2023-04-16T02:12:37;27.65;;;15.45;;
18685;SDS011;9473;52.342;13.110;2023-04-16T02:15:04;30.45;;;16.40;;
18685;SDS011;9473;52.342;13.110;2023-04-16T02:17:31;32.10;;;16.90;;
18685;SDS011;9473;52.342;13.110;2023-04-16T02:19:58;28.27;;;15.82;;
18685;SDS011;9473;52.342;13.110;2023-04-16T02:22:27;31.02;;;16.60;;
18685;SDS011;9473;52.342;13.110;2023-04-16T02:24:54;29.52;;;15.60;;
18685;SDS011;9473;52.342;13.110;2023-04-16T02:27:21;29.35;;;15.63;;
18685;SDS011;9473;52.342;13.110;2023-04-16T02:29:49;32.45;;;16.20;;
18685;SDS011;9473;52.342;13.110;2023-04-16T02:32:16;28.08;;;15.80;;
18685;SDS011;9473;52.342;13.110;2023-04-16T02:34:43;35.45;;;17.70;;
18685;SDS011;9473;52.342;13.110;2023-04-16T02:37:10;35.38;;;16.73;;
18685;SDS011;9473;52.342;13.110;2023-04-16T02:39:39;27.67;;;14.63;;
18685;SDS011;9473;52.342;13.110;2023-04-16T02:42:06;30.55;;;15.00;;
18685;SDS011;9473;52.342;13.110;2023-04-16T02:44:33;25.02;;;13.93;;
18685;SDS011;9473;52.342;13.110;2023-04-16T02:47:01;29.33;;;15.85;;
18685;SDS011;9473;52.342;13.110;2023-04-16T02:49:28;28.00;;;14.93;;
18685;SDS011;9473;52.342;13.110;2023-04-16T02:51:55;32.13;;;15.88;;
18685;SDS011;9473;52.342;13.110;2023-04-16T02:54:22;29.67;;;15.70;;
18685;SDS011;9473;52.342;13.110;2023-04-16T02:56:49;30.00;;;15.77;;
18685;SDS011;9473;52.342;13.110;2023-04-16T02:59:16;32.45;;;15.05;;
18685;SDS011;9473;52.342;13.110;2023-04-16T03:01:43;26.02;;;14.13;;
18685;SDS011;9473;52.342;13.110;2023-04-16T03:04:11;29.20;;;15.20;;
18685;SDS011;9473;52.342;13.110;2023-04-16T03:06:38;31.77;;;15.75;;
18685;SDS011;9473;52.342;13.110;2023-04-16T03:09:05;29.48;;;15.73;;
18685;SDS011;9473;52.342;13.110;2023-04-16T03:11:32;32.35;;;16.27;;
18685;SDS011;9473;52.342;13.110;2023-04-16T03:13:59;33.38;;;15.95;;
18685;SDS011;9473;52.342;13.110;2023-04-16T03:16:26;33.85;;;16.52;;
18685;SDS011;9473;52.342;13.110;2023-04-16T03:18:53;36.63;;;16.67;;
18685;SDS011;9473;52.342;13.110;2023-04-16T03:21:22;39.97;;;16.75;;
18685;SDS011;9473;52.342;13.110;2023-04-16T03:23:48;28.90;;;14.52;;
18685;SDS011;9473;52.342;13.110;2023-04-16T03:26:17;30.30;;;15.82;;
18685;SDS011;9473;52.342;13.110;2023-04-16T03:28:44;30.38;;;15.65;;
18685;SDS011;9473;52.342;13.110;2023-04-16T03:31:11;34.17;;;16.85;;
18685;SDS011;9473;52.342;13.110;2023-04-16T03:33:38;32.85;;;17.55;;
18685;SDS011;9473;52.342;13.110;2023-04-16T03:36:05;34.97;;;17.63;;
18685;SDS011;9473;52.342;13.110;2023-04-16T03:38:34;37.08;;;17.67;;
18685;SDS011;9473;52.342;13.110;2023-04-16T03:41:01;38.50;;;17.70;;
18685;SDS011;9473;52.342;13.110;2023-04-16T03:43:27;39.22;;;18.80;;
18685;SDS011;9473;52.342;13.110;2023-04-16T03:45:54;38.25;;;18.63;;
18685;SDS011;9473;52.342;13.110;2023-04-16T03:48:21;34.58;;;17.73;;
18685;SDS011;9473;52.342;13.110;2023-04-16T03:50:48;37.10;;;17.58;;
18685;SDS011;9473;52.342;13.110;2023-04-16T03:53:15;42.28;;;18.58;;
18685;SDS011;9473;52.342;13.110;2023-04-16T03:55:43;33.97;;;16.50;;
18685;SDS011;9473;52.342;13.110;2023-04-16T03:58:10;42.03;;;18.75;;
18685;SDS011;9473;52.342;13.110;2023-04-16T04:00:40;40.47;;;19.38;;
18685;SDS011;9473;52.342;13.110;2023-04-16T04:03:07;42.00;;;19.13;;
18685;SDS011;9473;52.342;13.110;2023-04-16T04:05:35;36.05;;;16.27;;
18685;SDS011;9473;52.342;13.110;2023-04-16T04:08:02;38.83;;;18.17;;
18685;SDS011;9473;52.342;13.110;2023-04-16T04:10:30;37.97;;;17.83;;
18685;SDS011;9473;52.342;13.110;2023-04-16T04:12:58;38.05;;;18.63;;
18685;SDS011;9473;52.342;13.110;2023-04-16T04:15:25;36.42;;;17.38;;
18685;SDS011;9473;52.342;13.110;2023-04-16T04:17:52;40.45;;;18.42;;
18685;SDS011;9473;52.342;13.110;2023-04-16T04:20:19;43.95;;;19.45;;
18685;SDS011;9473;52.342;13.110;2023-04-16T04:22:46;43.55;;;20.02;;
18685;SDS011;9473;52.342;13.110;2023-04-16T04:25:13;43.60;;;19.15;;
18685;SDS011;9473;52.342;13.110;2023-04-16T04:27:40;42.88;;;18.85;;
18685;SDS011;9473;52.342;13.110;2023-04-16T04:30:09;37.70;;;16.98;;
18685;SDS011;9473;52.342;13.110;2023-04-16T04:32:36;44.15;;;17.95;;
18685;SDS011;9473;52.342;13.110;2023-04-16T04:35:03;49.13;;;20.13;;
18685;SDS011;9473;52.342;13.110;2023-04-16T04:37:30;45.85;;;20.02;;
18685;SDS011;9473;52.342;13.110;2023-04-16T04:39:57;43.53;;;19.30;;
18685;SDS011;9473;52.342;13.110;2023-04-16T04:42:24;45.53;;;19.85;;
18685;SDS011;9473;52.342;13.110;2023-04-16T04:44:51;46.40;;;19.33;;
18685;SDS011;9473;52.342;13.110;2023-04-16T04:47:19;47.72;;;20.55;;
18685;SDS011;9473;52.342;13.110;2023-04-16T04:49:46;48.13;;;20.23;;
18685;SDS011;9473;52.342;13.110;2023-04-16T04:52:13;52.72;;;20.20;;
18685;SDS011;9473;52.342;13.110;2023-04-16T04:54:40;43.22;;;19.05;;
18685;SDS011;9473;52.342;13.110;2023-04-16T04:57:07;39.60;;;18.90;;
18685;SDS011;9473;52.342;13.110;2023-04-16T04:59:34;42.45;;;19.25;;
18685;SDS011;9473;52.342;13.110;2023-04-16T05:02:01;37.63;;;18.00;;
18685;SDS011;9473;52.342;13.110;2023-04-16T05:04:29;33.13;;;16.52;;
18685;SDS011;9473;52.342;13.110;2023-04-16T05:06:56;33.20;;;16.20;;
18685;SDS011;9473;52.342;13.110;2023-04-16T05:09:23;36.88;;;17.77;;
18685;SDS011;9473;52.342;13.110;2023-04-16T05:11:50;42.90;;;17.77;;
18685;SDS011;9473;52.342;13.110;2023-04-16T05:14:17;40.95;;;18.33;;
18685;SDS011;9473;52.342;13.110;2023-04-16T05:16:44;42.75;;;19.25;;
18685;SDS011;9473;52.342;13.110;2023-04-16T05:19:11;39.55;;;17.60;;
18685;SDS011;9473;52.342;13.110;2023-04-16T05:21:39;40.42;;;17.88;;
18685;SDS011;9473;52.342;13.110;2023-04-16T05:24:06;38.13;;;17.45;;
18685;SDS011;9473;52.342;13.110;2023-04-16T05:26:33;42.83;;;19.20;;
18685;SDS011;9473;52.342;13.110;2023-04-16T05:29:00;47.78;;;18.38;;
18685;SDS011;9473;52.342;13.110;2023-04-16T05:31:27;45.03;;;19.48;;
18685;SDS011;9473;52.342;13.110;2023-04-16T05:33:54;45.55;;;19.15;;
18685;SDS011;9473;52.342;13.110;2023-04-16T05:36:21;45.20;;;17.63;;
18685;SDS011;9473;52.342;13.110;2023-04-16T05:38:49;45.30;;;19.17;;
18685;SDS011;9473;52.342;13.110;2023-04-16T05:41:16;41.35;;;17.92;;
18685;SDS011;9473;52.342;13.110;2023-04-16T05:43:43;46.38;;;17.92;;
18685;SDS011;9473;52.342;13.110;2023-04-16T05:46:09;48.63;;;19.08;;
18685;SDS011;9473;52.342;13.110;2023-04-16T05:48:36;40.70;;;17.95;;
18685;SDS011;9473;52.342;13.110;2023-04-16T05:51:03;47.25;;;19.23;;
18685;SDS011;9473;52.342;13.110;2023-04-16T05:53:31;49.45;;;20.30;;
18685;SDS011;9473;52.342;13.110;2023-04-16T05:55:59;43.83;;;19.73;;
18685;SDS011;9473;52.342;13.110;2023-04-16T05:58:26;44.92;;;19.48;;
18685;SDS011;9473;52.342;13.110;2023-04-16T06:00:53;42.58;;;19.27;;
18685;SDS011;9473;52.342;13.110;2023-04-16T06:03:20;47.20;;;20.33;;
18685;SDS011;9473;52.342;13.110;2023-04-16T06:05:47;43.38;;;18.80;;
18685;SDS011;9473;52.342;13.110;2023-04-16T06:08:14;49.15;;;19.88;;
18685;SDS011;9473;52.342;13.110;2023-04-16T06:10:41;39.63;;;17.77;;
18685;SDS011;9473;52.342;13.110;2023-04-16T06:13:09;37.75;;;17.08;;
18685;SDS011;9473;52.342;13.110;2023-04-16T06:15:36;39.22;;;17.70;;
18685;SDS011;9473;52.342;13.110;2023-04-16T06:18:03;42.17;;;16.75;;
18685;SDS011;9473;52.342;13.110;2023-04-16T06:20:30;38.83;;;17.58;;
18685;SDS011;9473;52.342;13.110;2023-04-16T06:22:57;42.22;;;17.90;;
18685;SDS011;9473;52.342;13.110;2023-04-16T06:25:24;39.97;;;17.10;;
18685;SDS011;9473;52.342;13.110;2023-04-16T06:27:51;37.22;;;16.15;;
18685;SDS011;9473;52.342;13.110;2023-04-16T06:30:20;41.03;;;17.45;;
18685;SDS011;9473;52.342;13.110;2023-04-16T06:32:47;35.13;;;15.88;;
18685;SDS011;9473;52.342;13.110;2023-04-16T06:35:13;34.40;;;16.48;;
18685;SDS011;9473;52.342;13.110;2023-04-16T06:37:40;41.22;;;17.13;;
18685;SDS011;9473;52.342;13.110;2023-04-16T06:40:08;40.83;;;17.80;;
18685;SDS011;9473;52.342;13.110;2023-04-16T06:42:35;34.83;;;16.15;;
18685;SDS011;9473;52.342;13.110;2023-04-16T06:45:02;35.47;;;16.63;;
18685;SDS011;9473;52.342;13.110;2023-04-16T06:47:30;35.97;;;16.25;;
18685;SDS011;9473;52.342;13.110;2023-04-16T06:49:57;35.47;;;15.73;;
18685;SDS011;9473;52.342;13.110;2023-04-16T06:52:24;36.05;;;16.23;;
18685;SDS011;9473;52.342;13.110;2023-04-16T06:54:51;32.22;;;14.75;;
18685;SDS011;9473;52.342;13.110;2023-04-16T06:57:17;36.90;;;16.90;;
18685;SDS011;9473;52.342;13.110;2023-04-16T06:59:44;32.78;;;15.27;;
18685;SDS011;9473;52.342;13.110;2023-04-16T07:02:11;35.20;;;16.23;;
18685;SDS011;9473;52.342;13.110;2023-04-16T07:04:40;34.95;;;15.93;;
18685;SDS011;9473;52.342;13.110;2023-04-16T07:07:07;29.92;;;14.93;;
18685;SDS011;9473;52.342;13.110;2023-04-16T07:09:34;35.30;;;15.52;;
18685;SDS011;9473;52.342;13.110;2023-04-16T07:12:00;34.67;;;15.27;;
18685;SDS011;9473;52.342;13.110;2023-04-16T07:14:27;33.58;;;15.77;;
18685;SDS011;9473;52.342;13.110;2023-04-16T07:16:54;34.88;;;14.93;;
18685;SDS011;9473;52.342;13.110;2023-04-16T07:19:21;34.13;;;14.75;;
18685;SDS011;9473;52.342;13.110;2023-04-16T07:21:49;31.30;;;13.57;;
18685;SDS011;9473;52.342;13.110;2023-04-16T07:24:16;34.83;;;15.00;;
18685;SDS011;9473;52.342;13.110;2023-04-16T07:26:43;31.70;;;14.35;;
18685;SDS011;9473;52.342;13.110;2023-04-16T07:29:10;29.80;;;13.88;;
18685;SDS011;9473;52.342;13.110;2023-04-16T07:31:37;30.75;;;14.65;;
18685;SDS011;9473;52.342;13.110;2023-04-16T07:34:04;32.45;;;14.68;;
18685;SDS011;9473;52.342;13.110;2023-04-16T07:36:31;29.80;;;14.80;;
18685;SDS011;9473;52.342;13.110;2023-04-16T07:38:59;32.03;;;14.95;;
18685;SDS011;9473;52.342;13.110;2023-04-16T07:41:26;31.63;;;14.98;;
18685;SDS011;9473;52.342;13.110;2023-04-16T07:43:54;28.77;;;13.70;;
18685;SDS011;9473;52.342;13.110;2023-04-16T07:46:21;31.27;;;15.45;;
18685;SDS011;9473;52.342;13.110;2023-04-16T07:48:48;29.67;;;14.85;;
18685;SDS011;9473;52.342;13.110;2023-04-16T07:51:15;35.10;;;16.02;;
18685;SDS011;9473;52.342;13.110;2023-04-16T07:53:43;32.03;;;15.57;;
18685;SDS011;9473;52.342;13.110;2023-04-16T07:56:11;32.28;;;15.45;;
18685;SDS011;9473;52.342;13.110;2023-04-16T07:58:38;35.05;;;16.27;;
18685;SDS011;9473;52.342;13.110;2023-04-16T08:01:05;28.38;;;13.40;;
18685;SDS011;9473;52.342;13.110;2023-04-16T08:03:32;30.50;;;14.70;;
18685;SDS011;9473;52.342;13.110;2023-04-16T08:05:59;30.58;;;14.77;;
18685;SDS011;9473;52.342;13.110;2023-04-16T08:08:25;35.38;;;16.60;;
18685;SDS011;9473;52.342;13.110;2023-04-16T08:10:53;34.35;;;16.05;;
18685;SDS011;9473;52.342;13.110;2023-04-16T08:13:22;33.33;;;16.02;;
18685;SDS011;9473;52.342;13.110;2023-04-16T08:15:49;33.15;;;15.82;;
18685;SDS011;9473;52.342;13.110;2023-04-16T08:18:17;31.58;;;14.63;;
18685;SDS011;9473;52.342;13.110;2023-04-16T08:20:44;29.92;;;13.10;;
18685;SDS011;9473;52.342;13.110;2023-04-16T08:23:11;28.90;;;14.27;;
18685;SDS011;9473;52.342;13.110;2023-04-16T08:25:38;28.98;;;13.38;;
18685;SDS011;9473;52.342;13.110;2023-04-16T08:28:05;25.90;;;13.05;;
18685;SDS011;9473;52.342;13.110;2023-04-16T08:30:33;27.50;;;12.75;;
18685;SDS011;9473;52.342;13.110;2023-04-16T08:33:00;30.08;;;13.70;;
18685;SDS011;9473;52.342;13.110;2023-04-16T08:35:27;26.08;;;13.15;;
18685;SDS011;9473;52.342;13.110;2023-04-16T08:37:54;27.42;;;13.55;;
18685;SDS011;9473;52.342;13.110;2023-04-16T08:40:24;25.27;;;12.98;;
18685;SDS011;9473;52.342;13.110;2023-04-16T08:42:58;24.67;;;12.68;;
18685;SDS011;9473;52.342;13.110;2023-04-16T08:45:27;28.13;;;13.13;;
18685;SDS011;9473;52.342;13.110;2023-04-16T08:47:55;29.80;;;13.18;;
18685;SDS011;9473;52.342;13.110;2023-04-16T08:50:32;23.48;;;12.13;;
18685;SDS011;9473;52.342;13.110;2023-04-16T08:53:02;22.92;;;11.63;;
18685;SDS011;9473;52.342;13.110;2023-04-16T08:55:31;24.20;;;12.32;;
18685;SDS011;9473;52.342;13.110;2023-04-16T08:58:13;22.58;;;12.18;;
18685;SDS011;9473;52.342;13.110;2023-04-16T09:00:49;21.02;;;10.85;;
18685;SDS011;9473;52.342;13.110;2023-04-16T09:03:39;22.42;;;11.30;;
18685;SDS011;9473;52.342;13.110;2023-04-16T09:06:16;22.17;;;11.55;;
18685;SDS011;9473;52.342;13.110;2023-04-16T09:08:45;24.35;;;11.90;;
18685;SDS011;9473;52.342;13.110;2023-04-16T09:11:31;23.00;;;12.13;;
18685;SDS011;9473;52.342;13.110;2023-04-16T09:14:01;24.17;;;12.30;;
18685;SDS011;9473;52.342;13.110;2023-04-16T09:16:38;24.08;;;12.25;;
18685;SDS011;9473;52.342;13.110;2023-04-16T09:19:29;26.00;;;13.32;;
18685;SDS011;9473;52.342;13.110;2023-04-16T09:22:03;21.52;;;11.63;;
18685;SDS011;9473;52.342;13.110;2023-04-16T09:24:58;22.38;;;11.80;;
18685;SDS011;9473;52.342;13.110;2023-04-16T09:27:41;23.60;;;11.73;;
18685;SDS011;9473;52.342;13.110;2023-04-16T09:30:18;26.25;;;12.50;;
18685;SDS011;9473;52.342;13.110;2023-04-16T09:32:46;23.45;;;12.32;;
18685;SDS011;9473;52.342;13.110;2023-04-16T09:35:19;19.27;;;10.93;;
18685;SDS011;9473;52.342;13.110;2023-04-16T09:38:03;23.63;;;11.88;;
18685;SDS011;9473;52.342;13.110;2023-04-16T09:41:17;24.63;;;11.63;;
18685;SDS011;9473;52.342;13.110;2023-04-16T09:43:55;20.48;;;10.70;;
18685;SDS011;9473;52.342;13.110;2023-04-16T09:46:28;19.85;;;11.00;;
18685;SDS011;9473;52.342;13.110;2023-04-16T09:48:56;23.23;;;10.55;;
18685;SDS011;9473;52.342;13.110;2023-04-16T09:51:24;22.50;;;10.35;;
18685;SDS011;9473;52.342;13.110;2023-04-16T09:53:55;22.45;;;10.65;;
18685;SDS011;9473;52.342;13.110;2023-04-16T09:56:23;19.02;;;9.95;;
18685;SDS011;9473;52.342;13.110;2023-04-16T09:59:02;21.02;;;10.63;;
18685;SDS011;9473;52.342;13.110;2023-04-16T10:01:34;24.20;;;10.77;;
18685;SDS011;9473;52.342;13.110;2023-04-16T10:04:06;20.23;;;10.60;;
18685;SDS011;9473;52.342;13.110;2023-04-16T10:06:44;21.83;;;10.80;;
18685;SDS011;9473;52.342;13.110;2023-04-16T10:09:30;19.35;;;10.23;;
18685;SDS011;9473;52.342;13.110;2023-04-16T10:11:57;23.17;;;11.15;;
18685;SDS011;9473;52.342;13.110;2023-04-16T10:14:37;20.73;;;10.45;;
18685;SDS011;9473;52.342;13.110;2023-04-16T10:17:11;20.05;;;10.55;;
18685;SDS011;9473;52.342;13.110;2023-04-16T10:19:53;19.45;;;10.55;;
18685;SDS011;9473;52.342;13.110;2023-04-16T10:22:29;17.73;;;9.70;;
18685;SDS011;9473;52.342;13.110;2023-04-16T10:25:03;18.35;;;9.70;;
18685;SDS011;9473;52.342;13.110;2023-04-16T10:27:33;20.88;;;10.25;;
18685;SDS011;9473;52.342;13.110;2023-04-16T10:30:48;18.95;;;9.73;;
18685;SDS011;9473;52.342;13.110;2023-04-16T10:33:28;21.83;;;11.73;;
18685;SDS011;9473;52.342;13.110;2023-04-16T10:36:08;24.00;;;11.18;;
18685;SDS011;9473;52.342;13.110;2023-04-16T10:38:39;21.92;;;11.30;;
18685;SDS011;9473;52.342;13.110;2023-04-16T10:41:11;21.90;;;10.77;;
18685;SDS011;9473;52.342;13.110;2023-04-16T10:44:02;22.63;;;11.25;;
18685;SDS011;9473;52.342;13.110;2023-04-16T10:46:35;23.05;;;11.27;;
18685;SDS011;9473;52.342;13.110;2023-04-16T10:49:11;24.95;;;11.70;;
18685;SDS011;9473;52.342;13.110;2023-04-16T10:51:38;26.58;;;12.45;;
18685;SDS011;9473;52.342;13.110;2023-04-16T10:54:20;23.15;;;12.02;;
18685;SDS011;9473;52.342;13.110;2023-04-16T10:57:02;27.38;;;13.20;;
18685;SDS011;9473;52.342;13.110;2023-04-16T10:59:34;24.83;;;12.68;;
18685;SDS011;9473;52.342;13.110;2023-04-16T11:02:05;28.30;;;13.57;;
18685;SDS011;9473;52.342;13.110;2023-04-16T11:05:08;25.38;;;13.77;;
18685;SDS011;9473;52.342;13.110;2023-04-16T11:08:22;27.42;;;13.32;;
18685;SDS011;9473;52.342;13.110;2023-04-16T11:11:03;24.55;;;11.95;;
18685;SDS011;9473;52.342;13.110;2023-04-16T11:13:44;27.05;;;12.68;;
18685;SDS011;9473;52.342;13.110;2023-04-16T11:16:39;26.92;;;13.27;;
18685;SDS011;9473;52.342;13.110;2023-04-16T11:19:14;30.80;;;13.40;;
18685;SDS011;9473;52.342;13.110;2023-04-16T11:21:55;27.80;;;13.20;;
18685;SDS011;9473;52.342;13.110;2023-04-16T11:24:23;30.33;;;13.63;;
18685;SDS011;9473;52.342;13.110;2023-04-16T11:27:38;27.70;;;12.77;;
18685;SDS011;9473;52.342;13.110;2023-04-16T11:30:06;27.10;;;13.45;;
18685;SDS011;9473;52.342;13.110;2023-04-16T11:33:20;28.90;;;12.60;;
18685;SDS011;9473;52.342;13.110;2023-04-16T11:35:58;26.70;;;13.30;;
18685;SDS011;9473;52.342;13.110;2023-04-16T11:39:00;25.77;;;12.50;;
18685;SDS011;9473;52.342;13.110;2023-04-16T11:42:17;28.20;;;12.68;;
18685;SDS011;9473;52.342;13.110;2023-04-16T11:45:23;29.88;;;12.88;;
18685;SDS011;9473;52.342;13.110;2023-04-16T11:48:45;26.70;;;12.85;;
18685;SDS011;9473;52.342;13.110;2023-04-16T11:51:54;26.67;;;12.32;;
18685;SDS011;9473;52.342;13.110;2023-04-16T11:55:07;27.80;;;13.15;;
18685;SDS011;9473;52.342;13.110;2023-04-16T11:58:09;24.77;;;12.55;;
18685;SDS011;9473;52.342;13.110;2023-04-16T12:00:58;29.08;;;12.88;;
18685;SDS011;9473;52.342;13.110;2023-04-16T12:03:36;26.42;;;12.55;;
18685;SDS011;9473;52.342;13.110;2023-04-16T12:07:05;26.67;;;13.32;;
18685;SDS011;9473;52.342;13.110;2023-04-16T12:10:05;23.55;;;11.93;;
18685;SDS011;9473;52.342;13.110;2023-04-16T12:12:43;26.10;;;12.57;;
18685;SDS011;9473;52.342;13.110;2023-04-16T12:15:55;26.35;;;12.52;;
18685;SDS011;9473;52.342;13.110;2023-04-16T12:18:33;23.50;;;11.60;;
18685;SDS011;9473;52.342;13.110;2023-04-16T12:21:45;22.20;;;11.55;;
18685;SDS011;9473;52.342;13.110;2023-04-16T12:24:58;24.73;;;11.20;;
18685;SDS011;9473;52.342;13.110;2023-04-16T12:27:41;24.42;;;12.07;;
18685;SDS011;9473;52.342;13.110;2023-04-16T12:30:53;21.02;;;10.82;;
18685;SDS011;9473;52.342;13.110;2023-04-16T12:33:27;22.00;;;10.80;;
18685;SDS011;9473;52.342;13.110;2023-04-16T12:36:40;19.27;;;10.57;;
18685;SDS011;9473;52.342;13.110;2023-04-16T12:39:20;18.55;;;10.25;;
18685;SDS011;9473;52.342;13.110;2023-04-16T12:42:10;19.73;;;11.07;;
18685;SDS011;9473;52.342;13.110;2023-04-16T12:45:23;21.40;;;11.20;;
18685;SDS011;9473;52.342;13.110;2023-04-16T12:48:34;23.83;;;11.75;;
18685;SDS011;9473;52.342;13.110;2023-04-16T12:51:24;22.98;;;11.68;;
18685;SDS011;9473;52.342;13.110;2023-04-16T12:54:37;18.52;;;10.55;;
18685;SDS011;9473;52.342;13.110;2023-04-16T12:57:49;20.80;;;10.45;;
18685;SDS011;9473;52.342;13.110;2023-04-16T13:01:01;22.83;;;11.60;;
18685;SDS011;9473;52.342;13.110;2023-04-16T13:04:00;25.10;;;12.32;;
18685;SDS011;9473;52.342;13.110;2023-04-16T13:06:42;23.75;;;10.32;;
18685;SDS011;9473;52.342;13.110;2023-04-16T13:09:29;21.75;;;10.63;;
18685;SDS011;9473;52.342;13.110;2023-04-16T13:12:11;20.33;;;11.18;;
18685;SDS011;9473;52.342;13.110;2023-04-16T13:14:42;20.40;;;10.98;;
18685;SDS011;9473;52.342;13.110;2023-04-16T13:17:22;19.55;;;11.20;;
18685;SDS011;9473;52.342;13.110;2023-04-16T13:19:56;23.08;;;10.70;;
18685;SDS011;9473;52.342;13.110;2023-04-16T13:23:07;18.98;;;9.98;;
18685;SDS011;9473;52.342;13.110;2023-04-16T13:25:39;19.77;;;10.65;;
18685;SDS011;9473;52.342;13.110;2023-04-16T13:28:34;20.33;;;10.82;;
18685;SDS011;9473;52.342;13.110;2023-04-16T13:31:43;18.75;;;10.32;;
18685;SDS011;9473;52.342;13.110;2023-04-16T13:34:40;19.33;;;10.88;;
18685;SDS011;9473;52.342;13.110;2023-04-16T13:37:27;18.35;;;10.50;;
18685;SDS011;9473;52.342;13.110;2023-04-16T13:40:38;20.65;;;10.48;;
18685;SDS011;9473;52.342;13.110;2023-04-16T13:43:35;17.60;;;10.10;;
18685;SDS011;9473;52.342;13.110;2023-04-16T13:46:21;21.52;;;10.23;;
18685;SDS011;9473;52.342;13.110;2023-04-16T13:48:58;16.65;;;9.52;;
18685;SDS011;9473;52.342;13.110;2023-04-16T13:51:29;16.00;;;9.23;;
18685;SDS011;9473;52.342;13.110;2023-04-16T13:54:25;18.80;;;10.40;;
18685;SDS011;9473;52.342;13.110;2023-04-16T13:57:15;24.60;;;11.32;;
18685;SDS011;9473;52.342;13.110;2023-04-16T13:59:55;20.33;;;10.93;;
18685;SDS011;9473;52.342;13.110;2023-04-16T14:03:08;19.52;;;11.02;;
18685;SDS011;9473;52.342;13.110;2023-04-16T14:06:07;21.58;;;10.45;;
18685;SDS011;9473;52.342;13.110;2023-04-16T14:08:57;21.38;;;10.68;;
18685;SDS011;9473;52.342;13.110;2023-04-16T14:12:08;18.75;;;10.80;;
18685;SDS011;9473;52.342;13.110;2023-04-16T14:14:48;19.98;;;11.18;;
18685;SDS011;9473;52.342;13.110;2023-04-16T14:18:01;29.50;;;16.42;;
18685;SDS011;9473;52.342;13.110;2023-04-16T14:20:53;26.77;;;14.48;;
18685;SDS011;9473;52.342;13.110;2023-04-16T14:24:02;22.30;;;13.18;;
18685;SDS011;9473;52.342;13.110;2023-04-16T14:26:43;20.48;;;11.38;;
18685;SDS011;9473;52.342;13.110;2023-04-16T14:29:36;20.92;;;11.40;;
18685;SDS011;9473;52.342;13.110;2023-04-16T14:32:08;19.73;;;11.40;;
18685;SDS011;9473;52.342;13.110;2023-04-16T14:35:21;21.55;;;10.68;;
18685;SDS011;9473;52.342;13.110;2023-04-16T14:37:57;20.73;;;11.73;;
18685;SDS011;9473;52.342;13.110;2023-04-16T14:41:07;20.67;;;11.30;;
18685;SDS011;9473;52.342;13.110;2023-04-16T14:44:16;23.83;;;13.73;;
18685;SDS011;9473;52.342;13.110;2023-04-16T14:47:15;24.33;;;13.90;;
18685;SDS011;9473;52.342;13.110;2023-04-16T14:50:02;19.27;;;11.43;;
18685;SDS011;9473;52.342;13.110;2023-04-16T14:52:43;20.75;;;11.55;;
18685;SDS011;9473;52.342;13.110;2023-04-16T14:55:30;20.35;;;10.98;;
18685;SDS011;9473;52.342;13.110;2023-04-16T14:58:04;22.58;;;11.75;;
18685;SDS011;9473;52.342;13.110;2023-04-16T15:01:15;22.13;;;10.88;;
18685;SDS011;9473;52.342;13.110;2023-04-16T15:03:46;23.58;;;11.13;;
18685;SDS011;9473;52.342;13.110;2023-04-16T15:06:57;17.70;;;10.95;;